sensor_id;sensor_type;location;lat;lon;timestamp;temperature;humidity
15341;DHT22;7770;52.158;5.372;2023-03-02T00:01:38;1.50;99.90
15341;DHT22;7770;52.158;5.372;2023-03-02T00:04:36;1.50;99.90
15341;DHT22;7770;52.158;5.372;2023-03-02T00:07:29;1.40;99.90
15341;DHT22;7770;52.158;5.372;2023-03-02T00:10:17;1.40;99.90
15341;DHT22;7770;52.158;5.372;2023-03-02T00:13:03;1.40;99.90
15341;DHT22;7770;52.158;5.372;2023-03-02T00:15:50;1.30;99.90
15341;DHT22;7770;52.158;5.372;2023-03-02T00:18:36;1.40;99.90
15341;DHT22;7770;52.158;5.372;2023-03-02T00:21:22;1.40;99.90
15341;DHT22;7770;52.158;5.372;2023-03-02T00:24:09;1.40;99.90
15341;DHT22;7770;52.158;5.372;2023-03-02T00:26:55;1.40;99.90
15341;DHT22;7770;52.158;5.372;2023-03-02T00:29:41;1.50;99.90
15341;DHT22;7770;52.158;5.372;2023-03-02T00:32:27;1.50;99.90
15341;DHT22;7770;52.158;5.372;2023-03-02T00:35:13;1.50;99.90
15341;DHT22;7770;52.158;5.372;2023-03-02T00:37:59;1.50;99.90
15341;DHT22;7770;52.158;5.372;2023-03-02T00:40:46;1.50;99.90
15341;DHT22;7770;52.158;5.372;2023-03-02T00:43:34;1.50;99.90
15341;DHT22;7770;52.158;5.372;2023-03-02T00:46:22;1.40;99.90
15341;DHT22;7770;52.158;5.372;2023-03-02T00:49:09;1.40;99.90
15341;DHT22;7770;52.158;5.372;2023-03-02T00:51:55;1.30;99.90
15341;DHT22;7770;52.158;5.372;2023-03-02T00:54:41;1.20;99.90
15341;DHT22;7770;52.158;5.372;2023-03-02T00:57:27;1.20;99.90
15341;DHT22;7770;52.158;5.372;2023-03-02T01:00:14;1.10;99.90
15341;DHT22;7770;52.158;5.372;2023-03-02T01:03:00;1.10;99.90
15341;DHT22;7770;52.158;5.372;2023-03-02T01:05:46;1.10;99.90
15341;DHT22;7770;52.158;5.372;2023-03-02T01:08:32;1.10;99.90
15341;DHT22;7770;52.158;5.372;2023-03-02T01:11:20;1.20;99.90
15341;DHT22;7770;52.158;5.372;2023-03-02T01:14:07;1.10;99.90
15341;DHT22;7770;52.158;5.372;2023-03-02T01:16:53;1.10;99.90
15341;DHT22;7770;52.158;5.372;2023-03-02T01:19:40;1.10;99.90
15341;DHT22;7770;52.158;5.372;2023-03-02T01:22:26;1.10;99.90
15341;DHT22;7770;52.158;5.372;2023-03-02T01:25:12;1.10;99.90
15341;DHT22;7770;52.158;5.372;2023-03-02T01:27:58;1.00;99.90
15341;DHT22;7770;52.158;5.372;2023-03-02T01:30:46;1.00;99.90
15341;DHT22;7770;52.158;5.372;2023-03-02T01:33:32;1.00;99.90
15341;DHT22;7770;52.158;5.372;2023-03-02T01:36:18;1.00;99.90
15341;DHT22;7770;52.158;5.372;2023-03-02T01:39:04;1.00;99.90
15341;DHT22;7770;52.158;5.372;2023-03-02T01:41:51;1.00;99.90
15341;DHT22;7770;52.158;5.372;2023-03-02T01:47:35;1.00;99.90
15341;DHT22;7770;52.158;5.372;2023-03-02T01:50:25;1.00;99.90
15341;DHT22;7770;52.158;5.372;2023-03-02T01:53:13;1.00;99.90
15341;DHT22;7770;52.158;5.372;2023-03-02T01:56:01;0.90;99.90
15341;DHT22;7770;52.158;5.372;2023-03-02T01:58:55;1.00;99.90
15341;DHT22;7770;52.158;5.372;2023-03-02T02:01:50;1.00;99.90
15341;DHT22;7770;52.158;5.372;2023-03-02T02:04:41;1.10;99.90
15341;DHT22;7770;52.158;5.372;2023-03-02T02:07:28;1.00;99.90
15341;DHT22;7770;52.158;5.372;2023-03-02T02:10:14;1.00;99.90
15341;DHT22;7770;52.158;5.372;2023-03-02T02:13:00;1.00;99.90
15341;DHT22;7770;52.158;5.372;2023-03-02T02:15:46;1.00;99.90
15341;DHT22;7770;52.158;5.372;2023-03-02T02:18:33;1.00;99.90
15341;DHT22;7770;52.158;5.372;2023-03-02T02:21:21;1.00;99.90
15341;DHT22;7770;52.158;5.372;2023-03-02T02:24:25;1.00;99.90
15341;DHT22;7770;52.158;5.372;2023-03-02T02:27:16;0.90;99.90
15341;DHT22;7770;52.158;5.372;2023-03-02T02:30:03;0.90;99.90
15341;DHT22;7770;52.158;5.372;2023-03-02T02:32:52;0.90;99.90
15341;DHT22;7770;52.158;5.372;2023-03-02T02:35:39;1.00;99.90
15341;DHT22;7770;52.158;5.372;2023-03-02T02:38:26;1.00;99.90
15341;DHT22;7770;52.158;5.372;2023-03-02T02:41:21;0.90;99.90
15341;DHT22;7770;52.158;5.372;2023-03-02T02:44:14;0.90;99.90
15341;DHT22;7770;52.158;5.372;2023-03-02T02:47:01;0.90;99.90
15341;DHT22;7770;52.158;5.372;2023-03-02T02:49:49;0.90;99.90
15341;DHT22;7770;52.158;5.372;2023-03-02T02:52:37;0.90;99.90
15341;DHT22;7770;52.158;5.372;2023-03-02T02:55:25;0.80;99.90
15341;DHT22;7770;52.158;5.372;2023-03-02T02:58:36;0.70;99.90
15341;DHT22;7770;52.158;5.372;2023-03-02T03:01:25;0.80;99.90
15341;DHT22;7770;52.158;5.372;2023-03-02T03:04:13;0.80;99.90
15341;DHT22;7770;52.158;5.372;2023-03-02T03:07:05;0.80;99.90
15341;DHT22;7770;52.158;5.372;2023-03-02T03:10:03;0.80;99.90
15341;DHT22;7770;52.158;5.372;2023-03-02T03:13:01;0.80;99.90
15341;DHT22;7770;52.158;5.372;2023-03-02T03:15:47;0.80;99.90
15341;DHT22;7770;52.158;5.372;2023-03-02T03:18:33;0.80;99.90
15341;DHT22;7770;52.158;5.372;2023-03-02T03:21:19;0.70;99.90
15341;DHT22;7770;52.158;5.372;2023-03-02T03:24:05;0.70;99.90
15341;DHT22;7770;52.158;5.372;2023-03-02T03:26:52;0.70;99.90
15341;DHT22;7770;52.158;5.372;2023-03-02T03:29:44;0.70;99.90
15341;DHT22;7770;52.158;5.372;2023-03-02T03:32:33;0.70;99.90
15341;DHT22;7770;52.158;5.372;2023-03-02T03:35:20;0.70;99.90
15341;DHT22;7770;52.158;5.372;2023-03-02T03:38:06;0.70;99.90
15341;DHT22;7770;52.158;5.372;2023-03-02T03:40:52;0.70;99.90
15341;DHT22;7770;52.158;5.372;2023-03-02T03:43:38;0.70;99.90
15341;DHT22;7770;52.158;5.372;2023-03-02T03:46:24;0.70;99.90
15341;DHT22;7770;52.158;5.372;2023-03-02T03:49:11;0.70;99.90
15341;DHT22;7770;52.158;5.372;2023-03-02T03:51:57;0.70;99.90
15341;DHT22;7770;52.158;5.372;2023-03-02T03:54:43;0.70;99.90
15341;DHT22;7770;52.158;5.372;2023-03-02T03:57:29;0.70;99.90
15341;DHT22;7770;52.158;5.372;2023-03-02T04:00:15;0.60;99.90
15341;DHT22;7770;52.158;5.372;2023-03-02T04:03:02;0.60;99.90
15341;DHT22;7770;52.158;5.372;2023-03-02T04:05:48;0.60;99.90
15341;DHT22;7770;52.158;5.372;2023-03-02T04:08:34;0.60;99.90
15341;DHT22;7770;52.158;5.372;2023-03-02T04:11:20;0.60;99.90
15341;DHT22;7770;52.158;5.372;2023-03-02T04:14:07;0.70;99.90
15341;DHT22;7770;52.158;5.372;2023-03-02T04:16:53;0.60;99.90
15341;DHT22;7770;52.158;5.372;2023-03-02T04:19:39;0.60;99.90
15341;DHT22;7770;52.158;5.372;2023-03-02T04:22:26;0.60;99.90
15341;DHT22;7770;52.158;5.372;2023-03-02T04:25:13;0.60;99.90
15341;DHT22;7770;52.158;5.372;2023-03-02T04:28:04;0.60;99.90
15341;DHT22;7770;52.158;5.372;2023-03-02T04:30:50;0.60;99.90
15341;DHT22;7770;52.158;5.372;2023-03-02T04:33:36;0.60;99.90
15341;DHT22;7770;52.158;5.372;2023-03-02T04:36:24;0.60;99.90
15341;DHT22;7770;52.158;5.372;2023-03-02T04:39:12;0.60;99.90
15341;DHT22;7770;52.158;5.372;2023-03-02T04:42:00;0.60;99.90
15341;DHT22;7770;52.158;5.372;2023-03-02T04:44:46;0.50;99.90
15341;DHT22;7770;52.158;5.372;2023-03-02T04:47:33;0.50;99.90
15341;DHT22;7770;52.158;5.372;2023-03-02T04:50:19;0.50;99.90
15341;DHT22;7770;52.158;5.372;2023-03-02T04:53:06;0.40;99.90
15341;DHT22;7770;52.158;5.372;2023-03-02T04:55:52;0.40;99.90
15341;DHT22;7770;52.158;5.372;2023-03-02T04:58:38;0.40;99.90
15341;DHT22;7770;52.158;5.372;2023-03-02T05:01:25;0.40;99.90
15341;DHT22;7770;52.158;5.372;2023-03-02T05:04:12;0.40;99.90
15341;DHT22;7770;52.158;5.372;2023-03-02T05:06:58;0.30;99.90
15341;DHT22;7770;52.158;5.372;2023-03-02T05:09:44;0.30;99.90
15341;DHT22;7770;52.158;5.372;2023-03-02T05:12:30;0.30;99.90
15341;DHT22;7770;52.158;5.372;2023-03-02T05:15:16;0.30;99.90
15341;DHT22;7770;52.158;5.372;2023-03-02T05:18:04;0.20;99.90
15341;DHT22;7770;52.158;5.372;2023-03-02T05:20:53;0.30;99.90
15341;DHT22;7770;52.158;5.372;2023-03-02T05:23:40;0.30;99.90
15341;DHT22;7770;52.158;5.372;2023-03-02T05:26:27;0.20;99.90
15341;DHT22;7770;52.158;5.372;2023-03-02T05:29:13;0.20;99.90
15341;DHT22;7770;52.158;5.372;2023-03-02T05:31:59;0.30;99.90
15341;DHT22;7770;52.158;5.372;2023-03-02T05:34:45;0.20;99.90
15341;DHT22;7770;52.158;5.372;2023-03-02T05:37:31;0.10;99.90
15341;DHT22;7770;52.158;5.372;2023-03-02T05:40:20;0.10;99.90
15341;DHT22;7770;52.158;5.372;2023-03-02T05:43:06;0.10;99.90
15341;DHT22;7770;52.158;5.372;2023-03-02T05:45:52;0.10;99.90
15341;DHT22;7770;52.158;5.372;2023-03-02T05:48:40;0.00;99.90
15341;DHT22;7770;52.158;5.372;2023-03-02T05:51:27;0.10;99.90
15341;DHT22;7770;52.158;5.372;2023-03-02T05:54:13;0.10;99.90
15341;DHT22;7770;52.158;5.372;2023-03-02T05:57:00;0.10;99.90
15341;DHT22;7770;52.158;5.372;2023-03-02T05:59:46;0.10;99.90
15341;DHT22;7770;52.158;5.372;2023-03-02T06:02:32;0.10;99.90
15341;DHT22;7770;52.158;5.372;2023-03-02T06:05:18;0.00;99.90
15341;DHT22;7770;52.158;5.372;2023-03-02T06:08:05;0.10;99.90
15341;DHT22;7770;52.158;5.372;2023-03-02T06:10:54;0.10;99.90
15341;DHT22;7770;52.158;5.372;2023-03-02T06:13:41;0.10;99.90
15341;DHT22;7770;52.158;5.372;2023-03-02T06:16:26;0.10;99.90
15341;DHT22;7770;52.158;5.372;2023-03-02T06:19:12;0.10;99.90
15341;DHT22;7770;52.158;5.372;2023-03-02T06:21:58;0.10;99.90
15341;DHT22;7770;52.158;5.372;2023-03-02T06:24:44;0.00;99.90
15341;DHT22;7770;52.158;5.372;2023-03-02T06:27:30;0.00;99.90
15341;DHT22;7770;52.158;5.372;2023-03-02T06:30:18;0.00;99.90
15341;DHT22;7770;52.158;5.372;2023-03-02T06:33:06;-0.10;99.90
15341;DHT22;7770;52.158;5.372;2023-03-02T06:35:52;-0.10;99.90
15341;DHT22;7770;52.158;5.372;2023-03-02T06:38:38;-0.10;99.90
15341;DHT22;7770;52.158;5.372;2023-03-02T06:41:24;0.00;99.90
15341;DHT22;7770;52.158;5.372;2023-03-02T06:44:11;0.00;99.90
15341;DHT22;7770;52.158;5.372;2023-03-02T06:46:58;0.00;99.90
15341;DHT22;7770;52.158;5.372;2023-03-02T06:49:44;0.00;99.90
15341;DHT22;7770;52.158;5.372;2023-03-02T06:52:30;0.00;99.90
15341;DHT22;7770;52.158;5.372;2023-03-02T06:55:16;0.10;99.90
15341;DHT22;7770;52.158;5.372;2023-03-02T06:58:02;0.10;99.90
15341;DHT22;7770;52.158;5.372;2023-03-02T07:00:48;0.10;99.90
15341;DHT22;7770;52.158;5.372;2023-03-02T07:03:34;0.20;99.90
15341;DHT22;7770;52.158;5.372;2023-03-02T07:06:20;0.20;99.90
15341;DHT22;7770;52.158;5.372;2023-03-02T07:09:06;0.30;99.90
15341;DHT22;7770;52.158;5.372;2023-03-02T07:11:52;0.30;99.90
15341;DHT22;7770;52.158;5.372;2023-03-02T07:14:38;0.40;99.90
15341;DHT22;7770;52.158;5.372;2023-03-02T07:17:24;0.40;99.90
15341;DHT22;7770;52.158;5.372;2023-03-02T07:20:12;0.70;99.90
15341;DHT22;7770;52.158;5.372;2023-03-02T07:23:00;1.40;99.90
15341;DHT22;7770;52.158;5.372;2023-03-02T07:25:46;2.10;99.90
15341;DHT22;7770;52.158;5.372;2023-03-02T07:28:32;1.80;99.90
15341;DHT22;7770;52.158;5.372;2023-03-02T07:31:18;1.70;99.90
15341;DHT22;7770;52.158;5.372;2023-03-02T07:34:04;1.90;99.90
15341;DHT22;7770;52.158;5.372;2023-03-02T07:36:51;1.90;99.90
15341;DHT22;7770;52.158;5.372;2023-03-02T07:39:37;2.00;99.90
15341;DHT22;7770;52.158;5.372;2023-03-02T07:42:23;2.20;99.90
15341;DHT22;7770;52.158;5.372;2023-03-02T07:45:10;2.20;99.90
15341;DHT22;7770;52.158;5.372;2023-03-02T07:47:57;2.70;99.90
15341;DHT22;7770;52.158;5.372;2023-03-02T07:50:43;3.20;99.90
15341;DHT22;7770;52.158;5.372;2023-03-02T07:53:29;3.50;99.90
15341;DHT22;7770;52.158;5.372;2023-03-02T07:56:15;3.00;99.90
15341;DHT22;7770;52.158;5.372;2023-03-02T07:59:02;3.40;99.90
15341;DHT22;7770;52.158;5.372;2023-03-02T08:01:48;3.90;99.90
15341;DHT22;7770;52.158;5.372;2023-03-02T08:04:34;5.00;99.90
15341;DHT22;7770;52.158;5.372;2023-03-02T08:07:20;5.50;99.90
15341;DHT22;7770;52.158;5.372;2023-03-02T08:10:07;5.30;99.90
15341;DHT22;7770;52.158;5.372;2023-03-02T08:12:53;4.90;99.90
15341;DHT22;7770;52.158;5.372;2023-03-02T08:15:39;5.00;99.90
15341;DHT22;7770;52.158;5.372;2023-03-02T08:18:25;5.70;99.90
15341;DHT22;7770;52.158;5.372;2023-03-02T08:21:14;6.60;99.90
15341;DHT22;7770;52.158;5.372;2023-03-02T08:24:02;6.90;99.90
15341;DHT22;7770;52.158;5.372;2023-03-02T08:26:48;6.80;99.90
15341;DHT22;7770;52.158;5.372;2023-03-02T08:29:34;7.20;99.90
15341;DHT22;7770;52.158;5.372;2023-03-02T08:32:20;8.60;99.90
15341;DHT22;7770;52.158;5.372;2023-03-02T08:35:06;10.00;99.90
15341;DHT22;7770;52.158;5.372;2023-03-02T08:37:53;10.10;99.90
15341;DHT22;7770;52.158;5.372;2023-03-02T08:40:39;10.60;99.90
15341;DHT22;7770;52.158;5.372;2023-03-02T08:43:25;10.90;99.60
15341;DHT22;7770;52.158;5.372;2023-03-02T08:46:12;11.20;98.70
15341;DHT22;7770;52.158;5.372;2023-03-02T08:48:59;12.00;97.80
15341;DHT22;7770;52.158;5.372;2023-03-02T08:51:46;11.60;97.80
15341;DHT22;7770;52.158;5.372;2023-03-02T08:54:37;11.00;98.70
15341;DHT22;7770;52.158;5.372;2023-03-02T08:57:25;11.40;98.70
15341;DHT22;7770;52.158;5.372;2023-03-02T09:00:11;11.90;97.40
15341;DHT22;7770;52.158;5.372;2023-03-02T09:02:59;11.60;98.40
15341;DHT22;7770;52.158;5.372;2023-03-02T09:05:46;11.00;98.40
15341;DHT22;7770;52.158;5.372;2023-03-02T09:08:33;12.00;97.30
15341;DHT22;7770;52.158;5.372;2023-03-02T09:11:19;12.50;97.00
15341;DHT22;7770;52.158;5.372;2023-03-02T09:14:05;12.70;96.40
15341;DHT22;7770;52.158;5.372;2023-03-02T09:16:51;10.30;98.80
15341;DHT22;7770;52.158;5.372;2023-03-02T09:19:37;9.80;99.90
15341;DHT22;7770;52.158;5.372;2023-03-02T09:22:26;10.40;99.10
15341;DHT22;7770;52.158;5.372;2023-03-02T09:25:14;10.10;99.40
15341;DHT22;7770;52.158;5.372;2023-03-02T09:28:00;11.90;98.00
15341;DHT22;7770;52.158;5.372;2023-03-02T09:30:51;11.50;97.80
15341;DHT22;7770;52.158;5.372;2023-03-02T09:33:38;11.10;97.90
15341;DHT22;7770;52.158;5.372;2023-03-02T09:36:25;11.80;98.10
15341;DHT22;7770;52.158;5.372;2023-03-02T09:39:12;12.80;96.90
15341;DHT22;7770;52.158;5.372;2023-03-02T09:51:24;12.20;97.10
15341;DHT22;7770;52.158;5.372;2023-03-02T09:54:29;14.50;94.50
15341;DHT22;7770;52.158;5.372;2023-03-02T09:57:24;15.90;92.20
15341;DHT22;7770;52.158;5.372;2023-03-02T10:03:21;15.30;91.90
15341;DHT22;7770;52.158;5.372;2023-03-02T10:06:09;13.60;94.10
15341;DHT22;7770;52.158;5.372;2023-03-02T10:08:55;13.90;94.10
15341;DHT22;7770;52.158;5.372;2023-03-02T10:11:55;14.50;93.60
15341;DHT22;7770;52.158;5.372;2023-03-02T10:15:13;15.80;91.70
15341;DHT22;7770;52.158;5.372;2023-03-02T10:21:21;14.70;92.00
15341;DHT22;7770;52.158;5.372;2023-03-02T10:24:23;14.10;93.00
15341;DHT22;7770;52.158;5.372;2023-03-02T10:27:33;13.40;93.00
15341;DHT22;7770;52.158;5.372;2023-03-02T10:30:29;13.40;93.30
15341;DHT22;7770;52.158;5.372;2023-03-02T10:33:19;13.20;93.60
15341;DHT22;7770;52.158;5.372;2023-03-02T10:36:18;13.00;93.90
15341;DHT22;7770;52.158;5.372;2023-03-02T10:39:17;13.90;93.60
15341;DHT22;7770;52.158;5.372;2023-03-02T10:42:06;14.40;93.50
15341;DHT22;7770;52.158;5.372;2023-03-02T10:45:23;16.30;92.50
15341;DHT22;7770;52.158;5.372;2023-03-02T10:48:13;18.00;91.40
15341;DHT22;7770;52.158;5.372;2023-03-02T10:50:59;18.90;90.20
15341;DHT22;7770;52.158;5.372;2023-03-02T10:53:45;18.80;90.10
15341;DHT22;7770;52.158;5.372;2023-03-02T10:56:32;18.60;90.60
15341;DHT22;7770;52.158;5.372;2023-03-02T11:05:21;18.90;88.30
15341;DHT22;7770;52.158;5.372;2023-03-02T11:08:23;18.20;90.50
15341;DHT22;7770;52.158;5.372;2023-03-02T11:11:22;14.70;90.60
15341;DHT22;7770;52.158;5.372;2023-03-02T11:14:16;13.60;91.60
15341;DHT22;7770;52.158;5.372;2023-03-02T11:17:21;14.00;91.80
15341;DHT22;7770;52.158;5.372;2023-03-02T11:20:24;14.90;91.00
15341;DHT22;7770;52.158;5.372;2023-03-02T11:26:25;15.70;91.90
15341;DHT22;7770;52.158;5.372;2023-03-02T11:32:29;17.80;91.20
15341;DHT22;7770;52.158;5.372;2023-03-02T11:35:23;18.80;90.10
15341;DHT22;7770;52.158;5.372;2023-03-02T11:38:31;19.60;88.40
15341;DHT22;7770;52.158;5.372;2023-03-02T11:41:30;19.70;87.70
15341;DHT22;7770;52.158;5.372;2023-03-02T11:44:19;17.00;88.80
15341;DHT22;7770;52.158;5.372;2023-03-02T11:47:09;16.30;90.90
15341;DHT22;7770;52.158;5.372;2023-03-02T11:50:02;17.40;86.70
15341;DHT22;7770;52.158;5.372;2023-03-02T11:52:58;16.10;91.00
15341;DHT22;7770;52.158;5.372;2023-03-02T11:55:48;18.10;91.10
15341;DHT22;7770;52.158;5.372;2023-03-02T11:58:36;19.10;88.90
15341;DHT22;7770;52.158;5.372;2023-03-02T12:01:24;18.00;89.40
15341;DHT22;7770;52.158;5.372;2023-03-02T12:04:34;17.30;91.60
15341;DHT22;7770;52.158;5.372;2023-03-02T12:07:24;18.10;91.00
15341;DHT22;7770;52.158;5.372;2023-03-02T12:10:25;18.50;90.10
15341;DHT22;7770;52.158;5.372;2023-03-02T12:13:19;17.50;90.70
15341;DHT22;7770;52.158;5.372;2023-03-02T12:16:19;17.70;90.80
15341;DHT22;7770;52.158;5.372;2023-03-02T12:19:28;17.30;91.20
15341;DHT22;7770;52.158;5.372;2023-03-02T12:22:29;18.50;90.80
15341;DHT22;7770;52.158;5.372;2023-03-02T12:28:11;18.30;90.90
15341;DHT22;7770;52.158;5.372;2023-03-02T12:31:11;18.30;90.60
15341;DHT22;7770;52.158;5.372;2023-03-02T12:33:59;17.10;91.20
15341;DHT22;7770;52.158;5.372;2023-03-02T12:36:45;15.90;92.70
15341;DHT22;7770;52.158;5.372;2023-03-02T12:46:34;13.40;94.50
15341;DHT22;7770;52.158;5.372;2023-03-02T12:52:35;12.80;96.50
15341;DHT22;7770;52.158;5.372;2023-03-02T12:55:22;12.10;95.60
15341;DHT22;7770;52.158;5.372;2023-03-02T12:58:18;11.50;97.90
15341;DHT22;7770;52.158;5.372;2023-03-02T13:01:23;11.60;98.10
15341;DHT22;7770;52.158;5.372;2023-03-02T13:04:28;11.90;97.50
15341;DHT22;7770;52.158;5.372;2023-03-02T13:07:21;11.50;98.10
15341;DHT22;7770;52.158;5.372;2023-03-02T13:10:41;11.40;98.40
15341;DHT22;7770;52.158;5.372;2023-03-02T13:13:36;11.40;98.50
15341;DHT22;7770;52.158;5.372;2023-03-02T13:16:25;11.20;98.90
15341;DHT22;7770;52.158;5.372;2023-03-02T13:19:17;11.00;99.70
15341;DHT22;7770;52.158;5.372;2023-03-02T13:22:04;10.80;99.30
15341;DHT22;7770;52.158;5.372;2023-03-02T13:24:58;10.70;99.90
15341;DHT22;7770;52.158;5.372;2023-03-02T13:27:55;10.70;99.90
15341;DHT22;7770;52.158;5.372;2023-03-02T13:30:45;10.80;99.90
15341;DHT22;7770;52.158;5.372;2023-03-02T13:33:45;10.80;99.90
15341;DHT22;7770;52.158;5.372;2023-03-02T13:36:35;10.60;99.70
15341;DHT22;7770;52.158;5.372;2023-03-02T13:39:27;10.30;99.90
15341;DHT22;7770;52.158;5.372;2023-03-02T13:42:37;10.40;99.90
15341;DHT22;7770;52.158;5.372;2023-03-02T13:48:13;10.50;99.90
15341;DHT22;7770;52.158;5.372;2023-03-02T13:51:16;10.40;99.90
15341;DHT22;7770;52.158;5.372;2023-03-02T13:54:09;10.30;99.90
15341;DHT22;7770;52.158;5.372;2023-03-02T13:57:02;10.30;99.90
15341;DHT22;7770;52.158;5.372;2023-03-02T13:59:49;10.30;99.90
15341;DHT22;7770;52.158;5.372;2023-03-02T14:02:35;9.70;99.90
15341;DHT22;7770;52.158;5.372;2023-03-02T14:05:23;9.70;99.90
15341;DHT22;7770;52.158;5.372;2023-03-02T14:08:11;9.80;99.90
15341;DHT22;7770;52.158;5.372;2023-03-02T14:10:58;9.90;99.90
15341;DHT22;7770;52.158;5.372;2023-03-02T14:13:53;9.80;99.90
15341;DHT22;7770;52.158;5.372;2023-03-02T14:16:39;10.00;99.90
15341;DHT22;7770;52.158;5.372;2023-03-02T14:19:26;10.00;99.90
15341;DHT22;7770;52.158;5.372;2023-03-02T14:22:12;9.80;99.90
15341;DHT22;7770;52.158;5.372;2023-03-02T14:24:58;9.60;99.90
15341;DHT22;7770;52.158;5.372;2023-03-02T14:27:44;9.80;99.90
15341;DHT22;7770;52.158;5.372;2023-03-02T14:30:32;9.90;99.90
15341;DHT22;7770;52.158;5.372;2023-03-02T14:33:19;9.50;99.90
15341;DHT22;7770;52.158;5.372;2023-03-02T14:36:06;9.50;99.90
15341;DHT22;7770;52.158;5.372;2023-03-02T14:38:55;9.50;99.90
15341;DHT22;7770;52.158;5.372;2023-03-02T14:41:42;9.50;99.90
15341;DHT22;7770;52.158;5.372;2023-03-02T14:44:28;9.60;99.90
15341;DHT22;7770;52.158;5.372;2023-03-02T14:47:15;9.60;99.90
15341;DHT22;7770;52.158;5.372;2023-03-02T14:50:04;9.50;99.90
15341;DHT22;7770;52.158;5.372;2023-03-02T14:52:53;9.20;99.90
15341;DHT22;7770;52.158;5.372;2023-03-02T14:55:41;9.30;99.90
15341;DHT22;7770;52.158;5.372;2023-03-02T14:58:32;9.30;99.90
15341;DHT22;7770;52.158;5.372;2023-03-02T15:01:19;9.20;99.90
15341;DHT22;7770;52.158;5.372;2023-03-02T15:04:08;9.10;99.90
15341;DHT22;7770;52.158;5.372;2023-03-02T15:06:54;9.10;99.90
15341;DHT22;7770;52.158;5.372;2023-03-02T15:09:41;9.00;99.90
15341;DHT22;7770;52.158;5.372;2023-03-02T15:12:30;9.00;99.90
15341;DHT22;7770;52.158;5.372;2023-03-02T15:15:16;9.00;99.90
15341;DHT22;7770;52.158;5.372;2023-03-02T15:18:02;8.90;99.90
15341;DHT22;7770;52.158;5.372;2023-03-02T15:20:48;8.90;99.90
15341;DHT22;7770;52.158;5.372;2023-03-02T15:23:34;8.70;99.90
15341;DHT22;7770;52.158;5.372;2023-03-02T15:26:20;8.80;99.90
15341;DHT22;7770;52.158;5.372;2023-03-02T15:29:07;8.80;99.90
15341;DHT22;7770;52.158;5.372;2023-03-02T15:31:53;8.70;99.90
15341;DHT22;7770;52.158;5.372;2023-03-02T15:34:39;8.70;99.90
15341;DHT22;7770;52.158;5.372;2023-03-02T15:37:25;8.60;99.90
15341;DHT22;7770;52.158;5.372;2023-03-02T15:40:11;8.40;99.90
15341;DHT22;7770;52.158;5.372;2023-03-02T15:42:57;8.30;99.90
15341;DHT22;7770;52.158;5.372;2023-03-02T15:45:44;8.30;99.90
15341;DHT22;7770;52.158;5.372;2023-03-02T15:48:31;8.30;99.90
15341;DHT22;7770;52.158;5.372;2023-03-02T15:51:17;8.30;99.90
15341;DHT22;7770;52.158;5.372;2023-03-02T15:54:03;8.20;99.90
15341;DHT22;7770;52.158;5.372;2023-03-02T15:56:51;8.20;99.90
15341;DHT22;7770;52.158;5.372;2023-03-02T15:59:38;8.20;99.90
15341;DHT22;7770;52.158;5.372;2023-03-02T16:02:24;8.10;99.90
15341;DHT22;7770;52.158;5.372;2023-03-02T16:05:10;8.10;99.90
15341;DHT22;7770;52.158;5.372;2023-03-02T16:07:56;7.90;99.90
15341;DHT22;7770;52.158;5.372;2023-03-02T16:10:42;7.90;99.90
15341;DHT22;7770;52.158;5.372;2023-03-02T16:13:29;7.90;99.90
15341;DHT22;7770;52.158;5.372;2023-03-02T16:16:15;7.90;99.90
15341;DHT22;7770;52.158;5.372;2023-03-02T16:19:01;7.80;99.90
15341;DHT22;7770;52.158;5.372;2023-03-02T16:21:47;7.80;99.90
15341;DHT22;7770;52.158;5.372;2023-03-02T16:24:33;7.70;99.90
15341;DHT22;7770;52.158;5.372;2023-03-02T16:27:19;7.70;99.90
15341;DHT22;7770;52.158;5.372;2023-03-02T16:30:06;7.70;99.90
15341;DHT22;7770;52.158;5.372;2023-03-02T16:32:56;7.50;99.90
15341;DHT22;7770;52.158;5.372;2023-03-02T16:35:43;7.40;99.90
15341;DHT22;7770;52.158;5.372;2023-03-02T16:38:29;7.40;99.90
15341;DHT22;7770;52.158;5.372;2023-03-02T16:41:18;7.40;99.90
15341;DHT22;7770;52.158;5.372;2023-03-02T16:44:06;7.30;99.90
15341;DHT22;7770;52.158;5.372;2023-03-02T16:46:55;7.20;99.90
15341;DHT22;7770;52.158;5.372;2023-03-02T16:49:41;7.10;99.90
15341;DHT22;7770;52.158;5.372;2023-03-02T16:52:27;7.10;99.90
15341;DHT22;7770;52.158;5.372;2023-03-02T16:55:16;7.00;99.90
15341;DHT22;7770;52.158;5.372;2023-03-02T16:58:02;6.90;99.90
15341;DHT22;7770;52.158;5.372;2023-03-02T17:00:49;6.90;99.90
15341;DHT22;7770;52.158;5.372;2023-03-02T17:03:35;6.80;99.90
15341;DHT22;7770;52.158;5.372;2023-03-02T17:06:22;6.80;99.90
15341;DHT22;7770;52.158;5.372;2023-03-02T17:09:09;6.70;99.90
15341;DHT22;7770;52.158;5.372;2023-03-02T17:11:56;6.60;99.90
15341;DHT22;7770;52.158;5.372;2023-03-02T17:14:42;6.50;99.90
15341;DHT22;7770;52.158;5.372;2023-03-02T17:17:28;6.50;99.90
15341;DHT22;7770;52.158;5.372;2023-03-02T17:20:14;6.40;99.90
15341;DHT22;7770;52.158;5.372;2023-03-02T17:23:00;6.40;99.90
15341;DHT22;7770;52.158;5.372;2023-03-02T17:25:48;6.30;99.90
15341;DHT22;7770;52.158;5.372;2023-03-02T17:28:34;6.20;99.90
15341;DHT22;7770;52.158;5.372;2023-03-02T17:31:20;6.10;99.90
15341;DHT22;7770;52.158;5.372;2023-03-02T17:34:06;6.10;99.90
15341;DHT22;7770;52.158;5.372;2023-03-02T17:36:52;6.00;99.90
15341;DHT22;7770;52.158;5.372;2023-03-02T17:39:38;5.90;99.90
15341;DHT22;7770;52.158;5.372;2023-03-02T17:42:24;5.80;99.90
15341;DHT22;7770;52.158;5.372;2023-03-02T17:45:17;5.80;99.90
15341;DHT22;7770;52.158;5.372;2023-03-02T17:48:04;5.70;99.90
15341;DHT22;7770;52.158;5.372;2023-03-02T17:50:50;5.70;99.90
15341;DHT22;7770;52.158;5.372;2023-03-02T17:53:36;5.70;99.90
15341;DHT22;7770;52.158;5.372;2023-03-02T17:56:25;5.70;99.90
15341;DHT22;7770;52.158;5.372;2023-03-02T17:59:11;5.80;99.90
15341;DHT22;7770;52.158;5.372;2023-03-02T18:01:58;5.70;99.90
15341;DHT22;7770;52.158;5.372;2023-03-02T18:04:45;5.70;99.90
15341;DHT22;7770;52.158;5.372;2023-03-02T18:07:31;5.60;99.90
15341;DHT22;7770;52.158;5.372;2023-03-02T18:10:17;5.70;99.90
15341;DHT22;7770;52.158;5.372;2023-03-02T18:13:03;5.50;99.90
15341;DHT22;7770;52.158;5.372;2023-03-02T18:15:49;5.40;99.90
15341;DHT22;7770;52.158;5.372;2023-03-02T18:18:35;5.40;99.90
15341;DHT22;7770;52.158;5.372;2023-03-02T18:21:21;5.30;99.90
15341;DHT22;7770;52.158;5.372;2023-03-02T18:24:08;5.20;99.90
15341;DHT22;7770;52.158;5.372;2023-03-02T18:26:54;5.20;99.90
15341;DHT22;7770;52.158;5.372;2023-03-02T18:29:40;5.20;99.90
15341;DHT22;7770;52.158;5.372;2023-03-02T18:32:26;5.20;99.90
15341;DHT22;7770;52.158;5.372;2023-03-02T18:35:12;5.10;99.90
15341;DHT22;7770;52.158;5.372;2023-03-02T18:37:58;5.00;99.90
15341;DHT22;7770;52.158;5.372;2023-03-02T18:40:44;5.10;99.90
15341;DHT22;7770;52.158;5.372;2023-03-02T18:43:32;5.00;99.90
15341;DHT22;7770;52.158;5.372;2023-03-02T18:46:25;5.00;99.90
15341;DHT22;7770;52.158;5.372;2023-03-02T18:49:12;4.90;99.90
15341;DHT22;7770;52.158;5.372;2023-03-02T18:51:58;4.90;99.90
15341;DHT22;7770;52.158;5.372;2023-03-02T18:54:51;4.90;99.90
15341;DHT22;7770;52.158;5.372;2023-03-02T18:57:42;4.90;99.90
15341;DHT22;7770;52.158;5.372;2023-03-02T19:00:29;4.80;99.90
15341;DHT22;7770;52.158;5.372;2023-03-02T19:03:16;4.80;99.90